Time;durP1;ratioP1;P1;durP2;ratioP2;P2;SDS_P1;SDS_P2;PMS_P1;PMS_P2;Temp;Humidity;BMP_temperature;BMP_pressure;BME280_temperature;BME280_humidity;BME280_pressure;Samples;Min_cycle;Max_cycle;Signal;HPM_P1;HPM_P2
2021/12/13 00:02:20;;;;;;;322.43;114.03;;;-5.40;99.90;;;;;;10219151;29;20059;-84
2021/12/13 00:07:26;;;;;;;268.63;104.20;;;-5.50;99.90;;;;;;10210131;29;20404;-83
2021/12/13 00:12:33;;;;;;;216.47;89.90;;;-5.40;99.90;;;;;;10216453;29;20039;-84
2021/12/13 00:17:47;;;;;;;293.10;102.90;;;-5.50;99.90;;;;;;10225747;28;20484;-82
2021/12/13 00:22:52;;;;;;;247.50;98.50;;;-5.50;99.90;;;;;;10206683;29;20039;-83
2021/12/13 00:28:06;;;;;;;229.65;88.80;;;-5.60;99.90;;;;;;10206882;29;20036;-82
2021/12/13 00:33:32;;;;;;;270.00;100.13;;;-5.70;99.90;;;;;;10218485;29;20077;-82
2021/12/13 00:38:39;;;;;;;271.95;99.80;;;-5.70;99.90;;;;;;10210656;29;20399;-82
2021/12/13 00:43:56;;;;;;;253.10;103.33;;;-5.70;99.90;;;;;;10236933;28;20479;-81
2021/12/13 00:48:59;;;;;;;247.60;93.37;;;-5.80;99.90;;;;;;10208037;29;20516;-82
2021/12/13 00:54:10;;;;;;;270.30;99.13;;;-6.00;99.90;;;;;;10207033;29;20594;-82
2021/12/13 00:59:22;;;;;;;314.83;106.90;;;-6.10;99.90;;;;;;10215041;29;20114;-83
2021/12/13 01:04:51;;;;;;;285.07;103.53;;;-6.10;99.90;;;;;;10213284;29;20036;-82
2021/12/13 01:09:51;;;;;;;357.90;116.53;;;-6.20;99.90;;;;;;10220121;29;20078;-85
2021/12/13 01:15:00;;;;;;;303.43;105.70;;;-6.20;99.90;;;;;;10218361;29;20400;-84
2021/12/13 01:20:23;;;;;;;339.53;109.97;;;-6.20;99.90;;;;;;10216689;29;20070;-85
2021/12/13 01:26:26;;;;;;;304.50;96.90;;;-6.20;99.90;;;;;;10216206;28;20105;-82
2021/12/13 01:31:26;;;;;;;411.57;113.40;;;-6.10;99.90;;;;;;10212141;29;20332;-82
2021/12/13 01:36:52;;;;;;;294.07;101.43;;;-6.00;99.90;;;;;;10229588;28;20032;-85
2021/12/13 01:41:59;;;;;;;482.75;127.65;;;-5.90;99.90;;;;;;10216332;29;20435;-82
2021/12/13 01:47:13;;;;;;;372.73;120.57;;;-5.90;99.90;;;;;;10214441;29;20086;-82
2021/12/13 01:52:25;;;;;;;325.33;102.13;;;-5.90;99.90;;;;;;10215614;29;20054;-84
2021/12/13 01:57:40;;;;;;;413.07;126.13;;;-5.90;99.90;;;;;;10215606;28;20042;-83
2021/12/13 02:02:52;;;;;;;464.83;127.67;;;-5.90;99.90;;;;;;10557572;27;20392;-82
2021/12/13 02:08:06;;;;;;;471.67;133.07;;;-5.80;99.90;;;;;;10568801;28;20039;-86
2021/12/13 02:13:16;;;;;;;410.80;113.77;;;-5.70;99.90;;;;;;10568294;28;20085;-83
2021/12/13 02:18:20;;;;;;;390.17;109.17;;;-5.70;99.90;;;;;;10551760;28;20036;-83
2021/12/13 02:23:22;;;;;;;394.47;115.03;;;-5.60;99.90;;;;;;10568788;28;20485;-81
2021/12/13 02:28:27;;;;;;;316.40;97.57;;;-5.60;99.90;;;;;;10552708;28;20016;-84
2021/12/13 02:33:35;;;;;;;518.50;130.32;;;-5.60;99.90;;;;;;10569466;28;20102;-82
2021/12/13 02:38:37;;;;;;;381.57;107.73;;;-5.50;99.90;;;;;;10569043;28;20023;-84
2021/12/13 02:43:42;;;;;;;443.53;113.20;;;-5.50;99.90;;;;;;10567160;28;20123;-82
2021/12/13 02:48:54;;;;;;;565.58;137.68;;;-5.40;99.90;;;;;;10567117;28;20015;-85
2021/12/13 02:54:00;;;;;;;562.13;128.77;;;-5.50;99.90;;;;;;10567980;28;20366;-83
2021/12/13 02:59:03;;;;;;;347.80;97.73;;;-5.50;99.90;;;;;;10559024;28;20050;-83
2021/12/13 03:04:08;;;;;;;539.00;122.67;;;-5.50;99.90;;;;;;10565298;28;20061;-82
2021/12/13 03:09:15;;;;;;;387.70;107.95;;;-5.40;99.90;;;;;;10554563;28;20051;-83
2021/12/13 03:14:26;;;;;;;529.40;123.43;;;-5.40;99.90;;;;;;10536130;28;20032;-82
2021/12/13 03:19:38;;;;;;;476.20;112.87;;;-5.40;99.90;;;;;;10538698;28;20467;-81
2021/12/13 03:24:38;;;;;;;286.63;88.63;;;-5.50;99.90;;;;;;10538896;28;20020;-83
2021/12/13 03:29:51;;;;;;;367.60;106.43;;;-5.60;99.90;;;;;;10526051;28;20028;-84
2021/12/13 03:35:24;;;;;;;371.50;108.20;;;-5.60;99.90;;;;;;10538235;28;20023;-83
2021/12/13 03:40:25;;;;;;;276.73;88.80;;;-5.60;99.90;;;;;;10531611;28;20072;-82
2021/12/13 03:45:39;;;;;;;235.17;90.73;;;-5.70;99.90;;;;;;10537235;28;20028;-82
2021/12/13 03:50:45;;;;;;;211.60;74.47;;;-5.90;99.90;;;;;;10529649;28;20026;-85
2021/12/13 03:55:49;;;;;;;433.50;108.60;;;-6.00;99.90;;;;;;10537990;28;20141;-82
2021/12/13 04:00:59;;;;;;;351.27;99.83;;;-6.10;99.90;;;;;;10537018;28;20048;-82
2021/12/13 04:06:00;;;;;;;1112.30;236.83;;;-6.20;99.90;;;;;;10530941;28;20016;-88
2021/12/13 04:11:05;;;;;;;657.07;157.50;;;-6.30;99.90;;;;;;10527360;28;20120;-84
2021/12/13 04:16:35;;;;;;;825.42;170.25;;;-6.40;99.90;;;;;;10528116;28;20037;-82
2021/12/13 04:21:52;;;;;;;431.60;110.67;;;-6.50;99.90;;;;;;10529757;28;20026;-82
2021/12/13 04:26:57;;;;;;;288.40;92.80;;;-6.50;99.90;;;;;;10529037;28;20467;-82
2021/12/13 04:31:59;;;;;;;255.67;84.70;;;-6.50;99.90;;;;;;10531086;28;20019;-84
2021/12/13 04:37:00;;;;;;;250.13;82.73;;;-6.50;99.90;;;;;;10532967;28;20115;-82
2021/12/13 04:42:08;;;;;;;266.60;85.93;;;-6.40;99.90;;;;;;10535357;28;20115;-87
2021/12/13 04:47:16;;;;;;;417.97;107.00;;;-6.40;99.90;;;;;;10529982;28;20375;-84
2021/12/13 04:52:20;;;;;;;539.40;125.77;;;-6.30;99.90;;;;;;10529923;28;20362;-86
2021/12/13 04:57:22;;;;;;;400.70;101.20;;;-6.30;99.90;;;;;;10525404;28;20035;-83
2021/12/13 05:02:24;;;;;;;441.07;111.77;;;-6.30;99.90;;;;;;10518759;28;20512;-82
2021/12/13 05:07:26;;;;;;;310.10;92.87;;;-6.30;99.90;;;;;;10531847;28;20742;-83
2021/12/13 05:12:28;;;;;;;266.27;86.07;;;-6.20;99.90;;;;;;10534452;28;20145;-83
2021/12/13 05:17:45;;;;;;;261.73;84.17;;;-6.20;99.90;;;;;;10533800;28;20220;-83
2021/12/13 05:22:56;;;;;;;297.73;88.53;;;-6.20;99.90;;;;;;10532150;28;20040;-84
2021/12/13 05:28:14;;;;;;;276.20;88.87;;;-6.10;99.90;;;;;;10525254;28;20073;-84
2021/12/13 05:33:19;;;;;;;279.43;84.97;;;-5.90;99.90;;;;;;10533176;28;20082;-84
2021/12/13 05:38:27;;;;;;;266.33;87.80;;;-5.80;99.90;;;;;;10532868;28;20047;-84
2021/12/13 05:43:52;;;;;;;294.10;93.27;;;-5.70;99.90;;;;;;10526598;28;20035;-84
2021/12/13 05:48:56;;;;;;;332.50;107.23;;;-5.50;99.90;;;;;;10533342;28;20039;-85
2021/12/13 05:54:14;;;;;;;302.63;103.13;;;-5.30;99.90;;;;;;10532937;28;20099;-85
2021/12/13 05:59:34;;;;;;;303.43;99.87;;;-5.20;99.90;;;;;;10529963;28;20147;-83
2021/12/13 06:04:40;;;;;;;314.83;103.43;;;-5.10;99.90;;;;;;10524294;28;20063;-85
2021/12/13 06:10:06;;;;;;;311.43;111.27;;;-5.00;99.90;;;;;;10532702;28;20106;-86
2021/12/13 06:15:16;;;;;;;343.67;118.72;;;-4.90;99.90;;;;;;10530509;28;20031;-84
2021/12/13 06:20:24;;;;;;;325.97;111.23;;;-4.90;99.90;;;;;;10519101;28;20451;-85
2021/12/13 06:25:26;;;;;;;329.73;111.67;;;-4.80;99.90;;;;;;10531551;28;20028;-86
2021/12/13 06:30:32;;;;;;;378.03;122.03;;;-4.60;99.90;;;;;;10527096;28;20103;-84
2021/12/13 06:35:51;;;;;;;315.83;116.88;;;-4.60;99.90;;;;;;10523593;28;20024;-85
2021/12/13 06:41:14;;;;;;;337.83;120.43;;;-4.50;99.90;;;;;;10498905;28;20027;-83
2021/12/13 06:46:39;;;;;;;410.97;148.17;;;-4.40;99.90;;;;;;10530318;28;20416;-84
2021/12/13 06:51:57;;;;;;;356.73;129.33;;;-4.30;99.90;;;;;;10536526;28;20071;-84
2021/12/13 06:57:10;;;;;;;383.10;141.73;;;-4.10;99.90;;;;;;10533347;28;20024;-84
2021/12/13 07:02:17;;;;;;;429.87;178.70;;;-4.00;99.90;;;;;;10532091;28;20044;-88
2021/12/13 07:07:20;;;;;;;436.80;158.87;;;-3.90;99.90;;;;;;10517627;28;20482;-84
2021/12/13 07:12:23;;;;;;;477.77;172.50;;;-3.70;99.90;;;;;;10513146;28;20027;-84
2021/12/13 07:17:33;;;;;;;339.50;139.23;;;-3.60;99.90;;;;;;10519875;28;20026;-87
2021/12/13 07:22:34;;;;;;;341.97;137.60;;;-3.40;99.90;;;;;;10558200;28;20035;-85
2021/12/13 07:27:41;;;;;;;378.07;140.17;;;-3.30;99.90;;;;;;10544597;28;20032;-84
2021/12/13 07:32:57;;;;;;;333.60;133.63;;;-3.20;99.90;;;;;;10524069;28;20039;-84
2021/12/13 07:38:03;;;;;;;346.90;140.57;;;-3.10;99.90;;;;;;10536244;28;20031;-83
2021/12/13 07:43:35;;;;;;;537.90;220.70;;;-3.00;99.90;;;;;;10512798;28;20025;-85
2021/12/13 07:48:41;;;;;;;413.07;171.97;;;-3.00;99.90;;;;;;10519092;28;20032;-84
2021/12/13 07:53:57;;;;;;;376.93;152.63;;;-2.90;99.90;;;;;;10534561;28;20590;-83
2021/12/13 07:59:06;;;;;;;402.43;163.80;;;-2.80;99.90;;;;;;10533457;28;20059;-85
2021/12/13 08:04:08;;;;;;;407.97;178.73;;;-2.80;99.90;;;;;;10535941;28;20606;-83
2021/12/13 08:09:19;;;;;;;448.40;188.07;;;-2.60;99.90;;;;;;10535331;28;20111;-87
2021/12/13 08:14:30;;;;;;;460.73;196.23;;;-2.30;99.90;;;;;;10536383;28;20038;-82
2021/12/13 08:19:33;;;;;;;394.00;167.90;;;-2.20;99.90;;;;;;10535279;28;20078;-86
2021/12/13 08:24:42;;;;;;;274.60;115.33;;;-1.90;99.90;;;;;;10536246;28;20378;-84
2021/12/13 08:29:44;;;;;;;330.73;138.43;;;-1.70;99.90;;;;;;10535093;28;20118;-84
2021/12/13 08:34:56;;;;;;;292.60;123.27;;;-1.70;99.90;;;;;;10534370;28;20016;-84
2021/12/13 08:40:17;;;;;;;322.20;151.23;;;-1.50;99.90;;;;;;10535188;28;20043;-89
2021/12/13 08:45:39;;;;;;;316.60;132.57;;;-1.30;99.90;;;;;;10536432;28;20028;-84
2021/12/13 08:50:46;;;;;;;374.07;160.97;;;-0.80;99.90;;;;;;10535240;28;20426;-84
2021/12/13 08:55:59;;;;;;;318.33;134.43;;;-0.50;99.90;;;;;;10534068;28;20031;-85
2021/12/13 09:01:05;;;;;;;250.07;110.77;;;-0.20;99.90;;;;;;10534691;28;20059;-87
2021/12/13 09:06:09;;;;;;;251.90;112.72;;;-0.20;99.90;;;;;;10534510;28;20508;-83
2021/12/13 09:11:32;;;;;;;290.67;132.07;;;-0.30;99.90;;;;;;10533626;28;20055;-86
2021/12/13 09:17:06;;;;;;;253.83;115.70;;;-0.40;99.90;;;;;;10533930;28;20016;-84
2021/12/13 09:22:15;;;;;;;270.67;122.03;;;-0.40;99.90;;;;;;10534397;28;20371;-83
2021/12/13 09:27:40;;;;;;;258.57;118.67;;;-0.30;99.90;;;;;;10533583;28;20622;-84
2021/12/13 09:32:57;;;;;;;304.93;141.30;;;-0.20;99.90;;;;;;10513075;28;20054;-84
2021/12/13 09:38:23;;;;;;;276.50;126.50;;;-0.20;99.90;;;;;;10517060;28;20036;-84
2021/12/13 09:43:45;;;;;;;268.33;122.37;;;-0.10;99.90;;;;;;10520312;28;20466;-84
2021/12/13 09:48:53;;;;;;;264.70;122.23;;;0.00;99.90;;;;;;10556194;27;20374;-85
2021/12/13 09:53:58;;;;;;;277.50;124.73;;;0.20;99.90;;;;;;10534207;28;20031;-84
2021/12/13 09:59:11;;;;;;;262.10;120.30;;;0.50;99.90;;;;;;10558167;28;20052;-86
2021/12/13 10:04:35;;;;;;;248.60;117.10;;;0.80;99.90;;;;;;10519379;28;20413;-85
2021/12/13 10:09:44;;;;;;;253.97;120.53;;;0.90;99.90;;;;;;10512092;28;20066;-83
2021/12/13 10:14:56;;;;;;;360.07;168.63;;;1.00;99.90;;;;;;10531493;28;20020;-84
2021/12/13 10:19:59;;;;;;;273.03;124.43;;;1.00;99.90;;;;;;10531114;28;20044;-84
2021/12/13 10:25:18;;;;;;;323.47;140.63;;;1.00;99.90;;;;;;10541505;28;20020;-85
2021/12/13 10:30:31;;;;;;;276.83;130.00;;;1.10;99.90;;;;;;10517609;28;20028;-83
2021/12/13 10:35:36;;;;;;;334.33;151.07;;;1.20;99.90;;;;;;10531781;28;20535;-84
2021/12/13 10:40:39;;;;;;;301.13;134.75;;;1.20;99.90;;;;;;10559873;28;20067;-83
2021/12/13 10:45:55;;;;;;;277.23;132.47;;;1.30;99.90;;;;;;10518221;28;20019;-83
2021/12/13 10:51:05;;;;;;;235.18;118.63;;;1.30;99.90;;;;;;10533757;28;20041;-83
2021/12/13 10:56:11;;;;;;;244.13;116.03;;;1.40;99.90;;;;;;10516444;28;20024;-83
2021/12/13 11:01:23;;;;;;;216.43;109.45;;;1.50;99.90;;;;;;10508378;28;20048;-86
2021/12/13 11:06:24;;;;;;;250.57;120.73;;;1.50;99.90;;;;;;10497996;28;20056;-87
2021/12/13 11:11:33;;;;;;;276.23;134.17;;;1.60;99.90;;;;;;10529519;28;20367;-86
2021/12/13 11:16:54;;;;;;;289.47;138.90;;;1.70;99.90;;;;;;10534361;28;20078;-84
2021/12/13 11:22:02;;;;;;;249.80;120.20;;;1.80;99.90;;;;;;10569773;28;20040;-85
2021/12/13 11:27:17;;;;;;;244.97;119.03;;;1.80;99.90;;;;;;10536499;28;20023;-88
2021/12/13 11:32:38;;;;;;;286.33;144.23;;;1.90;99.90;;;;;;10537199;28;20027;-85
2021/12/13 11:37:56;;;;;;;275.50;136.13;;;2.00;99.90;;;;;;10537058;28;20063;-85
2021/12/13 11:43:12;;;;;;;258.17;131.77;;;2.10;99.90;;;;;;10536866;28;20548;-84
2021/12/13 11:48:49;;;;;;;317.08;147.15;;;2.20;99.90;;;;;;10536966;28;20028;-86
2021/12/13 11:54:28;;;;;;;270.83;127.13;;;2.20;99.90;;;;;;10528691;28;20093;-86
2021/12/13 11:59:58;;;;;;;319.67;141.77;;;2.20;99.90;;;;;;10534605;28;20044;-85
2021/12/13 12:05:32;;;;;;;261.53;126.67;;;2.20;99.90;;;;;;10535588;28;20020;-84
2021/12/13 12:10:50;;;;;;;273.37;132.30;;;2.20;99.90;;;;;;10533476;28;20025;-83
2021/12/13 12:15:52;;;;;;;253.33;131.13;;;2.30;99.90;;;;;;10531731;28;20031;-84
2021/12/13 12:21:30;;;;;;;248.07;126.50;;;2.40;99.90;;;;;;10527988;28;20043;-87
2021/12/13 12:26:32;;;;;;;243.80;122.30;;;2.40;99.90;;;;;;10537452;28;20024;-86
2021/12/13 12:31:41;;;;;;;233.57;114.03;;;2.30;99.90;;;;;;10517323;28;20077;-85
2021/12/13 12:37:19;;;;;;;242.33;121.27;;;2.30;99.90;;;;;;10534536;28;20115;-86
2021/12/13 12:42:33;;;;;;;250.50;125.90;;;2.20;99.90;;;;;;10535486;28;20020;-85
2021/12/13 12:47:34;;;;;;;264.03;125.70;;;2.20;99.90;;;;;;10490603;28;20051;-88
2021/12/13 12:52:45;;;;;;;270.17;138.40;;;2.20;99.90;;;;;;10533234;28;20055;-88
2021/12/13 12:57:46;;;;;;;335.37;164.23;;;2.10;99.90;;;;;;10533936;28;20012;-87
2021/12/13 13:02:48;;;;;;;334.83;179.17;;;2.10;99.90;;;;;;10534753;28;20543;-87
2021/12/13 13:07:51;;;;;;;351.70;180.50;;;2.10;99.90;;;;;;10535069;28;20451;-89
2021/12/13 13:13:08;;;;;;;333.77;170.10;;;2.00;99.90;;;;;;10531698;28;20056;-89
2021/12/13 13:18:17;;;;;;;339.90;174.77;;;2.00;99.90;;;;;;10534028;28;20499;-85
2021/12/13 13:23:24;;;;;;;343.57;174.13;;;1.90;99.90;;;;;;10532753;28;20028;-87
2021/12/13 13:28:38;;;;;;;282.23;147.93;;;1.90;99.90;;;;;;10504986;28;20034;-88
2021/12/13 13:33:51;;;;;;;272.67;143.07;;;1.90;99.90;;;;;;10522739;28;20024;-88
2021/12/13 13:38:52;;;;;;;298.67;152.40;;;1.80;99.90;;;;;;10521673;28;20036;-87
2021/12/13 13:43:52;;;;;;;299.67;158.70;;;1.80;99.90;;;;;;10533057;28;20028;-86
2021/12/13 13:48:53;;;;;;;301.43;156.43;;;1.70;99.90;;;;;;10521205;28;20027;-86
2021/12/13 13:53:55;;;;;;;309.60;163.80;;;1.60;99.90;;;;;;10528918;28;20622;-85
2021/12/13 13:59:06;;;;;;;341.87;185.20;;;1.60;99.90;;;;;;10532125;28;20451;-89
2021/12/13 14:04:21;;;;;;;370.17;194.63;;;1.60;99.90;;;;;;10532594;28;20044;-87
2021/12/13 14:09:24;;;;;;;330.20;180.10;;;1.50;99.90;;;;;;10531548;28;20020;-88
2021/12/13 14:14:48;;;;;;;334.70;173.33;;;1.60;99.90;;;;;;10517599;28;20040;-88
2021/12/13 14:19:51;;;;;;;349.50;183.50;;;1.50;99.90;;;;;;10572498;28;20023;-88
2021/12/13 14:24:52;;;;;;;377.53;201.83;;;1.50;99.90;;;;;;10527477;28;20030;-89
2021/12/13 14:30:19;;;;;;;394.83;205.30;;;1.50;99.90;;;;;;10529326;28;20141;-84
2021/12/13 14:35:31;;;;;;;374.37;195.80;;;1.40;99.90;;;;;;10519890;28;20074;-86
2021/12/13 14:41:03;;;;;;;389.87;214.77;;;1.40;99.90;;;;;;10500707;28;20036;-86
2021/12/13 14:46:15;;;;;;;431.17;234.87;;;1.30;99.90;;;;;;10509957;28;20105;-84
2021/12/13 14:51:19;;;;;;;452.87;249.93;;;1.20;99.90;;;;;;10527416;28;20034;-87
2021/12/13 14:56:21;;;;;;;428.07;225.30;;;1.30;99.90;;;;;;10519604;28;20149;-84
2021/12/13 15:01:33;;;;;;;455.10;247.83;;;1.20;99.90;;;;;;10508675;28;20052;-85
2021/12/13 15:06:47;;;;;;;445.73;243.03;;;1.20;99.90;;;;;;10519950;28;20568;-86
2021/12/13 15:12:03;;;;;;;482.20;259.07;;;1.10;99.90;;;;;;10528831;28;20493;-84
2021/12/13 15:17:32;;;;;;;503.70;284.75;;;1.10;99.90;;;;;;10527648;28;20020;-86
2021/12/13 15:22:42;;;;;;;468.17;269.13;;;1.10;99.90;;;;;;10518342;28;20040;-83
2021/12/13 15:27:44;;;;;;;509.00;291.47;;;1.10;99.90;;;;;;10536814;28;20078;-84
2021/12/13 15:32:52;;;;;;;465.30;246.40;;;1.10;99.90;;;;;;10538259;28;20043;-84
2021/12/13 15:37:59;;;;;;;459.17;244.70;;;1.20;99.90;;;;;;10514463;28;20039;-85
2021/12/13 15:43:33;;;;;;;475.27;253.50;;;1.10;99.90;;;;;;10524155;28;20623;-85
2021/12/13 15:54:24;;;;;;;494.30;268.80;;;1.10;99.90;;;;;;10535655;28;20057;-86
2021/12/13 15:59:35;;;;;;;538.07;290.57;;;1.10;99.90;;;;;;10530838;28;20425;-84
2021/12/13 16:04:42;;;;;;;543.60;296.23;;;1.10;99.90;;;;;;10528205;28;20069;-85
2021/12/13 16:09:51;;;;;;;582.83;316.97;;;1.10;99.90;;;;;;10530193;28;20082;-84
2021/12/13 16:15:04;;;;;;;558.60;308.20;;;1.20;99.90;;;;;;10529417;28;20502;-84
2021/12/13 16:20:31;;;;;;;524.47;286.83;;;1.20;99.90;;;;;;10525357;28;20123;-85
2021/12/13 16:25:52;;;;;;;522.38;284.80;;;1.20;99.90;;;;;;10503952;28;20020;-84
2021/12/13 16:31:08;;;;;;;543.63;296.93;;;1.20;99.90;;;;;;10521636;28;20023;-84
2021/12/13 16:36:22;;;;;;;540.53;292.03;;;1.20;99.90;;;;;;10533976;28;20658;-84
2021/12/13 16:41:25;;;;;;;524.63;283.27;;;1.20;99.90;;;;;;10535343;28;20435;-84
2021/12/13 16:46:30;;;;;;;565.27;305.93;;;1.20;99.90;;;;;;10534871;28;20024;-84
2021/12/13 16:51:38;;;;;;;626.97;333.33;;;1.20;99.90;;;;;;10536336;28;20467;-85
2021/12/13 16:56:40;;;;;;;593.43;320.27;;;1.20;99.90;;;;;;10510760;28;20035;-87
2021/12/13 17:01:46;;;;;;;602.70;336.23;;;1.10;99.90;;;;;;10533863;28;20052;-86
2021/12/13 17:06:52;;;;;;;;;;;1.20;99.90;;;;;;10528918;28;20032;-85
2021/12/13 17:12:09;;;;;;;680.07;387.67;;;1.20;99.90;;;;;;10532068;28;19912;-86
2021/12/13 17:17:09;;;;;;;754.43;411.00;;;1.20;99.90;;;;;;10532273;28;20796;-86
2021/12/13 17:22:13;;;;;;;797.27;424.33;;;1.20;99.90;;;;;;10522803;28;20057;-85
2021/12/13 17:27:19;;;;;;;831.67;449.73;;;1.20;99.90;;;;;;10524316;28;20069;-84
2021/12/13 17:32:42;;;;;;;869.80;452.90;;;1.20;99.90;;;;;;10531000;28;20016;-83
2021/12/13 17:37:53;;;;;;;1065.70;521.30;;;1.20;99.90;;;;;;10539709;28;20051;-84
2021/12/13 17:42:54;;;;;;;955.27;481.20;;;1.10;99.90;;;;;;10517870;28;20020;-83
2021/12/13 17:48:10;;;;;;;989.50;502.57;;;1.20;99.90;;;;;;10530632;28;20417;-86
2021/12/13 17:53:25;;;;;;;1120.90;528.47;;;1.20;99.90;;;;;;10532317;28;20031;-84
2021/12/13 17:58:40;;;;;;;1200.67;552.93;;;1.10;99.90;;;;;;10512525;28;20036;-84
2021/12/13 18:03:49;;;;;;;1203.70;542.67;;;1.20;99.90;;;;;;10542929;28;20104;-85
2021/12/13 18:09:22;;;;;;;1180.77;529.43;;;1.10;99.90;;;;;;10526706;28;20109;-85
2021/12/13 18:14:26;;;;;;;1076.00;500.30;;;1.10;99.90;;;;;;10509788;28;20028;-85
2021/12/13 18:19:39;;;;;;;1238.13;547.47;;;1.10;99.90;;;;;;10525366;28;20123;-85
2021/12/13 18:24:39;;;;;;;924.43;453.37;;;1.10;99.90;;;;;;10533486;28;20400;-85
2021/12/13 18:29:47;;;;;;;870.87;428.70;;;1.20;99.90;;;;;;10519614;28;20089;-85
2021/12/13 18:34:47;;;;;;;953.10;484.50;;;1.20;99.90;;;;;;10528952;28;20032;-87
2021/12/13 18:39:50;;;;;;;1029.23;485.10;;;1.20;99.90;;;;;;10520270;28;20036;-87
2021/12/13 18:45:07;;;;;;;862.17;432.40;;;1.20;99.90;;;;;;10527482;28;20082;-85
2021/12/13 18:50:12;;;;;;;914.97;445.83;;;1.20;99.90;;;;;;10500342;28;20028;-85
2021/12/13 18:55:24;;;;;;;912.70;449.70;;;1.20;99.90;;;;;;10500090;28;20016;-86
2021/12/13 19:00:38;;;;;;;806.73;405.07;;;1.30;99.90;;;;;;10533015;28;20505;-87
2021/12/13 19:06:00;;;;;;;793.90;400.00;;;1.30;99.90;;;;;;10529768;28;20020;-87
2021/12/13 19:11:00;;;;;;;954.03;454.07;;;1.30;99.90;;;;;;10518610;28;20082;-84
2021/12/13 19:16:36;;;;;;;896.30;425.47;;;1.30;99.90;;;;;;10536508;28;20146;-88
2021/12/13 19:21:50;;;;;;;918.57;428.33;;;1.30;99.90;;;;;;10538371;28;20371;-86
2021/12/13 19:26:58;;;;;;;860.80;420.27;;;1.30;99.90;;;;;;10538736;28;20350;-88
2021/12/13 19:32:16;;;;;;;908.00;422.53;;;1.30;99.90;;;;;;10537513;28;20489;-84
2021/12/13 19:37:39;;;;;;;937.93;435.00;;;1.30;99.90;;;;;;10525729;28;20060;-86
2021/12/13 19:42:42;;;;;;;928.70;426.30;;;1.30;99.90;;;;;;10518818;28;20044;-84
2021/12/13 19:47:52;;;;;;;914.93;436.77;;;1.20;99.90;;;;;;10525032;28;20047;-85
2021/12/13 19:53:20;;;;;;;788.30;400.10;;;1.30;99.90;;;;;;10525267;28;20034;-85
2021/12/13 19:58:38;;;;;;;906.70;434.17;;;1.20;99.90;;;;;;10512391;28;20048;-83
2021/12/13 20:04:03;;;;;;;848.90;417.27;;;1.30;99.90;;;;;;10522549;28;20046;-86
2021/12/13 20:09:12;;;;;;;889.80;434.97;;;1.30;99.90;;;;;;10532431;28;20173;-85
2021/12/13 20:14:28;;;;;;;887.37;438.07;;;1.30;99.90;;;;;;10528260;28;20035;-84
2021/12/13 20:19:33;;;;;;;923.15;438.25;;;1.30;99.90;;;;;;10524741;28;20023;-83
2021/12/13 20:24:41;;;;;;;937.73;436.90;;;1.30;99.90;;;;;;10542063;28;20341;-84
2021/12/13 20:30:00;;;;;;;798.10;400.83;;;1.30;99.90;;;;;;10512778;28;20104;-85
2021/12/13 20:35:21;;;;;;;897.53;418.50;;;1.30;99.90;;;;;;10535419;28;20028;-84
2021/12/13 20:40:39;;;;;;;840.40;411.70;;;1.40;99.90;;;;;;10481835;28;20155;-84
2021/12/13 20:45:50;;;;;;;825.63;402.50;;;1.40;99.90;;;;;;10508001;28;20123;-83
2021/12/13 20:50:56;;;;;;;819.27;408.53;;;1.30;99.90;;;;;;10535551;28;20103;-84
2021/12/13 20:56:05;;;;;;;933.55;443.17;;;1.40;99.90;;;;;;10534077;28;20031;-88
2021/12/13 21:01:30;;;;;;;971.60;444.00;;;1.40;99.90;;;;;;10534087;28;20056;-86
2021/12/13 21:06:52;;;;;;;840.20;406.27;;;1.40;99.90;;;;;;10474459;28;20021;-83
2021/12/13 21:12:00;;;;;;;1046.17;453.37;;;1.40;99.90;;;;;;10512110;28;20382;-86
2021/12/13 21:17:10;;;;;;;1133.80;473.03;;;1.40;99.90;;;;;;10533494;28;20038;-84
2021/12/13 21:22:19;;;;;;;958.00;443.07;;;1.40;99.90;;;;;;10533372;28;20032;-84
2021/12/13 21:27:33;;;;;;;1147.90;473.63;;;1.40;99.90;;;;;;10491547;28;20050;-83
2021/12/13 21:32:37;;;;;;;1139.20;480.10;;;1.40;99.90;;;;;;10502737;28;20115;-86
2021/12/13 21:42:58;;;;;;;1488.50;519.37;;;1.40;99.90;;;;;;10521684;28;20071;-86
2021/12/13 21:48:05;;;;;;;1161.03;492.33;;;1.40;99.90;;;;;;10532373;28;20085;-84
2021/12/13 21:53:12;;;;;;;1098.77;469.50;;;1.40;99.90;;;;;;10531371;28;20066;-86
2021/12/13 21:58:51;;;;;;;1094.13;454.00;;;1.40;99.90;;;;;;10532900;28;20031;-84
2021/12/13 22:04:08;;;;;;;1092.03;465.53;;;1.40;99.90;;;;;;10500426;28;20112;-85
2021/12/13 22:09:15;;;;;;;1225.83;499.20;;;1.50;99.90;;;;;;10532952;28;20490;-84
2021/12/13 22:14:38;;;;;;;951.97;421.00;;;1.50;99.90;;;;;;10532047;28;20027;-84
2021/12/13 22:19:44;;;;;;;1680.20;534.10;;;1.40;99.90;;;;;;10539801;28;20059;-83
2021/12/13 22:24:51;;;;;;;891.50;412.97;;;1.50;99.90;;;;;;10541693;28;20367;-86
2021/12/13 22:29:55;;;;;;;964.77;412.53;;;1.50;99.90;;;;;;10539786;28;20463;-85
2021/12/13 22:35:01;;;;;;;856.90;389.93;;;1.50;99.90;;;;;;10539784;28;20050;-84
2021/12/13 22:40:18;;;;;;;872.55;371.20;;;1.50;99.90;;;;;;10538483;28;20036;-86
2021/12/13 22:45:19;;;;;;;826.47;371.33;;;1.50;99.90;;;;;;10485844;28;20073;-84
2021/12/13 22:50:30;;;;;;;1016.73;410.50;;;1.50;99.90;;;;;;10540001;28;20073;-84
2021/12/13 22:55:37;;;;;;;1009.63;418.07;;;1.40;99.90;;;;;;10515578;28;20024;-85
2021/12/13 23:00:37;;;;;;;1147.10;469.60;;;1.50;99.90;;;;;;10518316;28;20044;-86
2021/12/13 23:05:38;;;;;;;983.47;439.63;;;1.50;99.90;;;;;;10538232;28;20028;-83
2021/12/13 23:10:53;;;;;;;1100.33;459.30;;;1.50;99.90;;;;;;10482738;28;20031;-84
2021/12/13 23:16:17;;;;;;;966.27;433.13;;;1.50;99.90;;;;;;10538656;28;20043;-84
2021/12/13 23:21:20;;;;;;;973.53;423.10;;;1.50;99.90;;;;;;10502047;28;20055;-84
2021/12/13 23:26:21;;;;;;;1261.77;470.47;;;1.50;99.90;;;;;;10496647;28;20024;-85
2021/12/13 23:31:25;;;;;;;1090.20;429.27;;;1.50;99.90;;;;;;10499648;28;20144;-84
2021/12/13 23:36:32;;;;;;;1325.67;465.87;;;1.50;99.90;;;;;;10538431;28;20664;-84
2021/12/13 23:47:16;;;;;;;942.13;408.00;;;1.50;99.90;;;;;;10537233;28;20032;-84
2021/12/13 23:52:39;;;;;;;1164.50;450.23;;;1.50;99.90;;;;;;10537805;28;20035;-84
2021/12/13 23:57:41;;;;;;;1476.30;480.43;;;1.50;99.90;;;;;;10519070;28;20054;-84
